Time;durP1;ratioP1;P1;durP2;ratioP2;P2;SDS_P1;SDS_P2;PMS_P1;PMS_P2;Temp;Humidity;BMP_temperature;BMP_pressure;BME280_temperature;BME280_humidity;BME280_pressure;Samples;Min_cycle;Max_cycle;Signal;HPM_P1;HPM_P2
2024/03/16 00:00:14;;;;;;;;;;;6.90;99.90;;;;;;5048982;28;19908;-73
2024/03/16 00:02:39;;;;;;;;;;;6.90;99.90;;;;;;5046868;28;20370;-72
2024/03/16 00:05:06;;;;;;;;;;;6.90;99.90;;;;;;5049446;28;19947;-73
2024/03/16 00:07:31;;;;;;;;;;;6.80;99.90;;;;;;5050534;28;19913;-74
2024/03/16 00:09:57;;;;;;;;;;;6.80;99.90;;;;;;5056669;28;19958;-73
2024/03/16 00:12:22;;;;;;;;;;;6.80;99.90;;;;;;5054387;28;19909;-73
2024/03/16 00:14:48;;;;;;;;;;;6.70;99.90;;;;;;5050089;28;19904;-74
2024/03/16 00:17:14;;;;;;;;;;;6.70;99.90;;;;;;5057555;28;19955;-73
2024/03/16 00:19:39;;;;;;;;;;;6.70;99.90;;;;;;5056312;28;19917;-72
2024/03/16 00:22:05;;;;;;;;;;;6.70;99.90;;;;;;5055801;28;19931;-71
2024/03/16 00:24:30;;;;;;;;;;;6.70;99.90;;;;;;5051605;28;20387;-73
2024/03/16 00:26:57;;;;;;;;;;;6.60;99.90;;;;;;5050285;28;20361;-73
2024/03/16 00:29:23;;;;;;;;;;;6.60;99.90;;;;;;5048785;28;19915;-73
2024/03/16 00:31:49;;;;;;;;;;;6.60;99.90;;;;;;5050296;28;19905;-73
2024/03/16 00:34:14;;;;;;;;;;;6.60;99.90;;;;;;5031760;28;19955;-74
2024/03/16 00:36:40;;;;;;;;;;;6.60;99.90;;;;;;5049802;28;19995;-73
2024/03/16 00:39:14;;;;;;;;;;;6.70;99.90;;;;;;5049961;28;19909;-73
2024/03/16 00:41:43;;;;;;;;;;;6.70;99.90;;;;;;5048649;28;19959;-74
2024/03/16 00:44:08;;;;;;;;;;;6.70;99.90;;;;;;5048505;28;20057;-73
2024/03/16 00:46:34;;;;;;;;;;;6.60;99.90;;;;;;5048536;28;20012;-73
2024/03/16 00:49:00;;;;;;;;;;;6.60;99.90;;;;;;5049831;28;19944;-73
2024/03/16 00:51:28;;;;;;;;;;;6.50;99.90;;;;;;5049876;28;20331;-73
2024/03/16 00:53:54;;;;;;;;;;;6.60;99.90;;;;;;5048603;28;19904;-73
2024/03/16 00:56:21;;;;;;;;;;;6.60;99.90;;;;;;5048493;28;19998;-73
2024/03/16 00:58:46;;;;;;;;;;;6.60;99.90;;;;;;5048322;28;19999;-73
2024/03/16 01:01:12;;;;;;;;;;;6.50;99.90;;;;;;5048629;28;20063;-73
2024/03/16 01:03:38;;;;;;;;;;;6.50;99.90;;;;;;5048291;28;20011;-73
2024/03/16 01:06:03;;;;;;;;;;;6.50;99.90;;;;;;5049662;28;20419;-71
2024/03/16 01:08:29;;;;;;;;;;;6.50;99.90;;;;;;5048319;28;20370;-73
2024/03/16 01:10:55;;;;;;;;;;;6.40;99.90;;;;;;5052228;28;20373;-73
2024/03/16 01:13:21;;;;;;;;;;;6.40;99.90;;;;;;5053020;28;19928;-72
2024/03/16 01:15:46;;;;;;;;;;;6.30;99.90;;;;;;5053353;28;19970;-73
2024/03/16 01:18:12;;;;;;;;;;;6.30;99.90;;;;;;5053043;28;19911;-73
2024/03/16 01:20:37;;;;;;;;;;;6.20;99.90;;;;;;5054172;28;20000;-72
2024/03/16 01:23:04;;;;;;;;;;;6.30;99.90;;;;;;5052539;28;20361;-73
2024/03/16 01:25:30;;;;;;;;;;;6.30;99.90;;;;;;5053559;28;20016;-73
2024/03/16 01:27:56;;;;;;;;;;;6.30;99.90;;;;;;5053184;28;20003;-73
2024/03/16 01:30:24;;;;;;;;;;;6.30;99.90;;;;;;5054454;28;19915;-73
2024/03/16 01:32:50;;;;;;;;;;;6.30;99.90;;;;;;5059567;28;20416;-72
2024/03/16 01:35:15;;;;;;;;;;;6.30;99.90;;;;;;5055820;28;19916;-73
2024/03/16 01:37:41;;;;;;;;;;;6.30;99.90;;;;;;5052485;28;19915;-72
2024/03/16 01:40:06;;;;;;;;;;;6.30;99.90;;;;;;5053369;28;19905;-71
2024/03/16 01:42:32;;;;;;;;;;;6.30;99.90;;;;;;5051873;28;19944;-73
2024/03/16 01:45:10;;;;;;;;;;;6.20;99.90;;;;;;5051484;28;19912;-73
2024/03/16 01:47:37;;;;;;;;;;;6.20;99.90;;;;;;5053131;28;19909;-73
2024/03/16 01:50:03;;;;;;;;;;;6.20;99.90;;;;;;5051678;28;19911;-73
2024/03/16 01:52:28;;;;;;;;;;;6.20;99.90;;;;;;5053070;28;19908;-72
2024/03/16 01:54:54;;;;;;;;;;;6.20;99.90;;;;;;5051447;28;19916;-73
2024/03/16 01:57:20;;;;;;;;;;;6.20;99.90;;;;;;5051803;28;19913;-74
2024/03/16 01:59:45;;;;;;;;;;;6.20;99.90;;;;;;5052751;28;19909;-73
2024/03/16 02:02:23;;;;;;;;;;;6.10;99.90;;;;;;5052781;28;19916;-73
2024/03/16 02:04:48;;;;;;;;;;;6.10;99.90;;;;;;5051104;28;19930;-73
2024/03/16 02:07:14;;;;;;;;;;;6.00;99.90;;;;;;5051343;28;19916;-73
2024/03/16 02:09:39;;;;;;;;;;;6.10;99.90;;;;;;5051379;28;19970;-73
2024/03/16 02:12:10;;;;;;;;;;;6.10;99.90;;;;;;5052372;28;19908;-72
2024/03/16 02:14:35;;;;;;;;;;;6.30;99.90;;;;;;5051682;28;19908;-73
2024/03/16 02:17:01;;;;;;;;;;;6.40;99.90;;;;;;5052670;28;19909;-73
2024/03/16 02:19:26;;;;;;;;;;;6.40;99.90;;;;;;5051118;28;19908;-72
2024/03/16 02:21:52;;;;;;;;;;;6.60;99.90;;;;;;5051902;28;19909;-74
2024/03/16 02:24:17;;;;;;;;;;;6.60;99.90;;;;;;5050968;28;19931;-74
2024/03/16 02:26:43;;;;;;;;;;;6.60;99.90;;;;;;5052251;28;19916;-73
2024/03/16 02:29:08;;;;;;;;;;;6.60;99.90;;;;;;5052314;28;20074;-72
2024/03/16 02:31:36;;;;;;;;;;;6.60;99.90;;;;;;5051115;28;20296;-73
2024/03/16 02:34:02;;;;;;;;;;;6.60;99.90;;;;;;5050629;28;19916;-73
2024/03/16 02:36:28;;;;;;;;;;;6.70;99.90;;;;;;5052115;28;19948;-73
2024/03/16 02:38:54;;;;;;;;;;;6.70;99.90;;;;;;5051933;28;19944;-74
2024/03/16 02:41:19;;;;;;;;;;;6.70;99.90;;;;;;5050740;28;20103;-73
2024/03/16 02:43:45;;;;;;;;;;;6.80;99.90;;;;;;5050771;28;20361;-73
2024/03/16 02:46:10;;;;;;;;;;;6.80;99.90;;;;;;5050742;28;20405;-73
2024/03/16 02:48:36;;;;;;;;;;;6.80;99.90;;;;;;5051907;28;19955;-73
2024/03/16 02:51:01;;;;;;;;;;;6.80;99.90;;;;;;5050535;28;20316;-74
2024/03/16 02:53:27;;;;;;;;;;;6.80;99.90;;;;;;5050424;28;20373;-73
2024/03/16 02:55:52;;;;;;;;;;;6.70;99.90;;;;;;5050435;28;19905;-73
2024/03/16 02:58:18;;;;;;;;;;;6.60;99.90;;;;;;5050312;28;20289;-74
2024/03/16 03:00:44;;;;;;;;;;;6.50;99.90;;;;;;5050389;28;20378;-74
2024/03/16 03:03:11;;;;;;;;;;;6.50;99.90;;;;;;5051614;28;19952;-73
2024/03/16 03:05:37;;;;;;;;;;;6.40;99.90;;;;;;5050404;28;20643;-72
2024/03/16 03:08:04;;;;;;;;;;;6.40;99.90;;;;;;5051547;28;19908;-73
2024/03/16 03:10:29;;;;;;;;;;;6.30;99.90;;;;;;5051595;28;19904;-73
2024/03/16 03:12:56;;;;;;;;;;;6.30;99.90;;;;;;5050205;28;20343;-74
2024/03/16 03:15:22;;;;;;;;;;;6.40;99.90;;;;;;5051387;28;19936;-74
2024/03/16 03:17:48;;;;;;;;;;;6.40;99.90;;;;;;5051383;28;20365;-73
2024/03/16 03:20:14;;;;;;;;;;;6.50;99.90;;;;;;5051179;28;20313;-73
2024/03/16 03:22:39;;;;;;;;;;;6.60;99.90;;;;;;5049790;28;19909;-73
2024/03/16 03:25:05;;;;;;;;;;;6.60;99.90;;;;;;5049823;28;20019;-73
2024/03/16 03:27:30;;;;;;;;;;;6.70;99.90;;;;;;5049795;28;19959;-72
2024/03/16 03:29:56;;;;;;;;;;;6.80;99.90;;;;;;5050504;28;19912;-73
2024/03/16 03:32:22;;;;;;;;;;;6.90;99.90;;;;;;5050363;28;20365;-72
2024/03/16 03:34:47;;;;;;;;;;;7.00;99.90;;;;;;5050507;28;20397;-74
2024/03/16 03:37:13;;;;;;;;;;;7.00;99.90;;;;;;5053902;28;19934;-75
2024/03/16 03:39:38;;;;;;;;;;;7.10;99.90;;;;;;5053304;28;19904;-74
2024/03/16 03:42:04;;;;;;;;;;;7.10;99.90;;;;;;5049711;28;19909;-73
2024/03/16 03:44:38;;;;;;;;;;;7.10;99.90;;;;;;5055372;28;19981;-73
2024/03/16 03:47:04;;;;;;;;;;;7.10;99.90;;;;;;5055356;28;19935;-74
2024/03/16 03:49:32;;;;;;;;;;;7.10;99.90;;;;;;5052713;28;20025;-74
2024/03/16 03:51:58;;;;;;;;;;;7.20;99.90;;;;;;5049792;28;20607;-73
2024/03/16 03:54:24;;;;;;;;;;;7.10;99.90;;;;;;5049593;28;19995;-74
2024/03/16 03:56:50;;;;;;;;;;;7.20;99.90;;;;;;5050786;28;19909;-73
2024/03/16 03:59:15;;;;;;;;;;;7.20;99.90;;;;;;5049218;28;19908;-73
2024/03/16 04:01:41;;;;;;;;;;;7.20;99.90;;;;;;5049263;28;20296;-73
2024/03/16 04:04:06;;;;;;;;;;;7.30;99.90;;;;;;5048963;28;20503;-72
2024/03/16 04:06:32;;;;;;;;;;;7.30;99.90;;;;;;5049039;28;19916;-72
2024/03/16 04:08:58;;;;;;;;;;;7.40;99.90;;;;;;5049110;28;19930;-74
2024/03/16 04:11:24;;;;;;;;;;;7.40;99.90;;;;;;5050346;28;19905;-73
2024/03/16 04:13:49;;;;;;;;;;;7.50;99.90;;;;;;5049064;28;19915;-73
2024/03/16 04:16:15;;;;;;;;;;;7.50;99.90;;;;;;5049058;28;20008;-74
2024/03/16 04:18:41;;;;;;;;;;;7.50;99.90;;;;;;5053062;28;20019;-73
2024/03/16 04:21:07;;;;;;;;;;;7.70;99.90;;;;;;5054130;28;19908;-74
2024/03/16 04:23:33;;;;;;;;;;;7.70;99.90;;;;;;5049278;28;19916;-73
2024/03/16 04:25:58;;;;;;;;;;;7.80;99.90;;;;;;5049995;28;19916;-74
2024/03/16 04:28:24;;;;;;;;;;;7.80;99.90;;;;;;5050062;28;19908;-73
2024/03/16 04:30:49;;;;;;;;;;;7.80;99.90;;;;;;5048653;28;20404;-73
2024/03/16 04:33:17;;;;;;;;;;;7.80;99.90;;;;;;5049893;28;20316;-73
2024/03/16 04:35:46;;;;;;;;;;;7.80;99.90;;;;;;5049821;28;19916;-73
2024/03/16 04:38:12;;;;;;;;;;;7.80;99.90;;;;;;5049728;28;19931;-73
2024/03/16 04:40:38;;;;;;;;;;;7.80;99.90;;;;;;5048609;28;19908;-73
2024/03/16 04:43:04;;;;;;;;;;;7.80;99.90;;;;;;5049771;28;20052;-74
2024/03/16 04:45:29;;;;;;;;;;;7.80;99.90;;;;;;5047880;28;19923;-73
2024/03/16 04:47:55;;;;;;;;;;;7.80;99.90;;;;;;5049947;28;19905;-74
2024/03/16 04:50:21;;;;;;;;;;;7.80;99.90;;;;;;5050192;28;20400;-73
2024/03/16 04:52:46;;;;;;;;;;;7.80;99.90;;;;;;5048564;28;20119;-73
2024/03/16 04:55:11;;;;;;;;;;;7.90;99.90;;;;;;5049681;28;20270;-73
2024/03/16 04:57:37;;;;;;;;;;;7.90;99.90;;;;;;5049527;28;20026;-74
2024/03/16 05:00:03;;;;;;;;;;;7.90;99.90;;;;;;5049753;28;20001;-73
2024/03/16 05:02:30;;;;;;;;;;;7.90;99.90;;;;;;5049630;28;19912;-73
2024/03/16 05:04:56;;;;;;;;;;;7.90;99.90;;;;;;5049309;28;19913;-72
2024/03/16 05:07:21;;;;;;;;;;;7.90;99.90;;;;;;5049530;28;19908;-72
2024/03/16 05:09:47;;;;;;;;;;;8.00;99.90;;;;;;5049573;28;19911;-73
2024/03/16 05:12:13;;;;;;;;;;;8.10;99.90;;;;;;5048449;28;20289;-72
2024/03/16 05:14:38;;;;;;;;;;;8.20;99.90;;;;;;5048297;28;20077;-72
2024/03/16 05:17:04;;;;;;;;;;;8.30;99.90;;;;;;5049517;28;20365;-71
2024/03/16 05:19:30;;;;;;;;;;;8.40;99.90;;;;;;5048058;28;20334;-73
2024/03/16 05:21:55;;;;;;;;;;;8.40;99.90;;;;;;5048067;28;20422;-74
2024/03/16 05:24:21;;;;;;;;;;;8.50;99.90;;;;;;5048073;28;20343;-74
2024/03/16 05:26:47;;;;;;;;;;;8.60;99.90;;;;;;5047957;28;20015;-73
2024/03/16 05:29:13;;;;;;;;;;;8.70;99.90;;;;;;5048143;28;19908;-73
2024/03/16 05:31:38;;;;;;;;;;;8.70;99.90;;;;;;5049391;28;19912;-74
2024/03/16 05:34:05;;;;;;;;;;;8.80;99.90;;;;;;5047997;28;19912;-73
2024/03/16 05:36:30;;;;;;;;;;;8.80;99.90;;;;;;5049457;28;19962;-73
2024/03/16 05:38:56;;;;;;;;;;;8.90;99.90;;;;;;5047960;28;20365;-73
2024/03/16 05:41:21;;;;;;;;;;;9.00;99.90;;;;;;5049379;28;19963;-73
2024/03/16 05:43:47;;;;;;;;;;;8.90;99.90;;;;;;5049529;28;19905;-74
2024/03/16 05:46:12;;;;;;;;;;;8.90;99.90;;;;;;5049947;28;19966;-74
2024/03/16 05:48:38;;;;;;;;;;;9.00;99.90;;;;;;5049470;28;20354;-73
2024/03/16 05:51:05;;;;;;;;;;;9.10;99.90;;;;;;5049225;28;20373;-73
2024/03/16 05:53:30;;;;;;;;;;;9.20;99.90;;;;;;5047797;28;20049;-73
2024/03/16 05:55:56;;;;;;;;;;;9.20;99.90;;;;;;5049621;28;20357;-72
2024/03/16 05:58:22;;;;;;;;;;;9.30;99.90;;;;;;5052240;28;19915;-73
2024/03/16 06:00:48;;;;;;;;;;;9.30;99.90;;;;;;5052656;28;19905;-73
2024/03/16 06:03:13;;;;;;;;;;;9.40;99.90;;;;;;5051265;28;19967;-72
2024/03/16 06:05:40;;;;;;;;;;;9.50;99.90;;;;;;5051344;28;19916;-74
2024/03/16 06:08:07;;;;;;;;;;;9.50;99.90;;;;;;5051104;28;19916;-73
2024/03/16 06:10:33;;;;;;;;;;;9.60;99.90;;;;;;5049616;28;19905;-72
2024/03/16 06:12:59;;;;;;;;;;;9.60;99.90;;;;;;5052821;28;20274;-73
2024/03/16 06:15:25;;;;;;;;;;;9.60;99.90;;;;;;5052568;28;19978;-73
2024/03/16 06:17:50;;;;;;;;;;;9.60;99.90;;;;;;5050960;28;20415;-73
2024/03/16 06:20:16;;;;;;;;;;;9.70;99.90;;;;;;5051046;28;20306;-72
2024/03/16 06:22:44;;;;;;;;;;;9.60;99.90;;;;;;5051123;28;19912;-73
2024/03/16 06:25:12;;;;;;;;;;;9.70;99.90;;;;;;5052024;28;20309;-72
2024/03/16 06:27:43;;;;;;;;;;;9.60;99.90;;;;;;5050745;28;19915;-72
2024/03/16 06:30:10;;;;;;;;;;;9.70;99.90;;;;;;5052043;28;19905;-73
2024/03/16 06:32:38;;;;;;;;;;;9.60;99.90;;;;;;5050705;28;20400;-73
2024/03/16 06:35:07;;;;;;;;;;;9.60;99.90;;;;;;5050498;28;19932;-73
2024/03/16 06:37:32;;;;;;;;;;;9.60;99.90;;;;;;5050704;28;19908;-73
2024/03/16 06:39:58;;;;;;;;;;;9.70;99.90;;;;;;5051990;28;19904;-74
2024/03/16 06:42:24;;;;;;;;;;;9.70;99.90;;;;;;5050602;28;20400;-73
2024/03/16 06:44:49;;;;;;;;;;;9.70;99.90;;;;;;5051630;28;19952;-73
2024/03/16 06:47:15;;;;;;;;;;;9.70;99.90;;;;;;5051882;28;20369;-73
2024/03/16 06:49:40;;;;;;;;;;;9.80;99.90;;;;;;5051803;28;19955;-74
2024/03/16 06:52:06;;;;;;;;;;;9.80;99.90;;;;;;5051607;28;20393;-73
2024/03/16 06:54:31;;;;;;;;;;;9.90;99.90;;;;;;5051495;28;20055;-74
2024/03/16 06:56:57;;;;;;;;;;;9.90;99.90;;;;;;5050069;28;20002;-73
2024/03/16 06:59:22;;;;;;;;;;;9.90;99.90;;;;;;5050044;28;19913;-73
2024/03/16 07:01:48;;;;;;;;;;;9.90;99.90;;;;;;5050190;28;19958;-73
2024/03/16 07:04:15;;;;;;;;;;;9.90;99.90;;;;;;5050283;28;19911;-74
2024/03/16 07:06:40;;;;;;;;;;;9.90;99.90;;;;;;5051385;28;19950;-73
2024/03/16 07:09:08;;;;;;;;;;;10.00;99.90;;;;;;5050369;28;19955;-74
2024/03/16 07:11:34;;;;;;;;;;;10.00;99.90;;;;;;5050504;28;19913;-74
2024/03/16 07:13:59;;;;;;;;;;;10.00;99.90;;;;;;5051430;28;20459;-73
2024/03/16 07:16:25;;;;;;;;;;;10.00;99.90;;;;;;5051644;28;19908;-75
2024/03/16 07:18:51;;;;;;;;;;;10.00;99.90;;;;;;5050039;28;20399;-73
2024/03/16 07:21:19;;;;;;;;;;;10.10;99.90;;;;;;5050148;28;20360;-73
2024/03/16 07:23:48;;;;;;;;;;;10.10;99.90;;;;;;5049884;28;19950;-74
2024/03/16 07:26:14;;;;;;;;;;;10.10;99.90;;;;;;5050293;28;20397;-73
2024/03/16 07:28:39;;;;;;;;;;;10.20;99.90;;;;;;5051526;28;20022;-74
2024/03/16 07:31:05;;;;;;;;;;;10.20;99.90;;;;;;5051152;28;19950;-74
2024/03/16 07:33:31;;;;;;;;;;;10.30;99.90;;;;;;5049364;28;19916;-74
2024/03/16 07:35:58;;;;;;;;;;;10.30;99.90;;;;;;5050883;28;20003;-73
2024/03/16 07:38:24;;;;;;;;;;;10.40;99.90;;;;;;5051127;28;19992;-75
2024/03/16 07:40:49;;;;;;;;;;;10.50;99.90;;;;;;5049536;28;20019;-74
2024/03/16 07:43:15;;;;;;;;;;;10.50;99.90;;;;;;5049596;28;20338;-74
2024/03/16 07:45:42;;;;;;;;;;;10.70;99.90;;;;;;5050565;28;20425;-73
2024/03/16 07:48:11;;;;;;;;;;;10.70;99.90;;;;;;5049271;28;20351;-75
2024/03/16 07:50:37;;;;;;;;;;;10.80;99.90;;;;;;5050490;28;19954;-74
2024/03/16 07:53:03;;;;;;;;;;;10.90;99.90;;;;;;5049447;28;20443;-74
2024/03/16 07:55:33;;;;;;;;;;;10.90;99.90;;;;;;5049352;28;19951;-74
2024/03/16 07:57:58;;;;;;;;;;;10.90;99.90;;;;;;5049252;28;19940;-74
2024/03/16 08:00:24;;;;;;;;;;;11.00;99.90;;;;;;5049052;28;20360;-74
2024/03/16 08:02:50;;;;;;;;;;;10.90;99.90;;;;;;5050410;28;19996;-74
2024/03/16 08:05:15;;;;;;;;;;;10.90;99.90;;;;;;5049051;28;20415;-75
2024/03/16 08:07:41;;;;;;;;;;;10.80;99.90;;;;;;5049979;28;19909;-75
2024/03/16 08:10:09;;;;;;;;;;;10.70;99.90;;;;;;5049264;28;19916;-74
2024/03/16 08:12:37;;;;;;;;;;;10.80;99.90;;;;;;5050306;28;19915;-75
2024/03/16 08:15:03;;;;;;;;;;;10.80;99.90;;;;;;5050325;28;19904;-73
2024/03/16 08:17:29;;;;;;;;;;;10.90;99.90;;;;;;5048894;28;19951;-74
2024/03/16 08:19:55;;;;;;;;;;;11.00;99.90;;;;;;5049649;28;20496;-74
2024/03/16 08:22:21;;;;;;;;;;;11.00;99.90;;;;;;5048865;28;19954;-74
2024/03/16 08:24:47;;;;;;;;;;;11.10;99.90;;;;;;5050011;28;19905;-74
2024/03/16 08:27:13;;;;;;;;;;;11.00;99.90;;;;;;5048688;28;19919;-75
2024/03/16 08:29:38;;;;;;;;;;;11.00;99.80;;;;;;5050102;28;19908;-74
2024/03/16 08:32:04;;;;;;;;;;;10.90;99.90;;;;;;5048618;28;19999;-74
2024/03/16 08:34:30;;;;;;;;;;;10.90;99.90;;;;;;5048671;28;19917;-75
2024/03/16 08:36:56;;;;;;;;;;;10.80;99.90;;;;;;5048597;28;19908;-73
2024/03/16 08:39:23;;;;;;;;;;;10.80;99.90;;;;;;5050088;28;19905;-74
2024/03/16 08:41:49;;;;;;;;;;;10.70;99.90;;;;;;5050167;28;20015;-75
2024/03/16 08:44:14;;;;;;;;;;;10.70;99.90;;;;;;5048419;28;20008;-74
2024/03/16 08:46:40;;;;;;;;;;;10.60;99.90;;;;;;5049706;28;19921;-75
2024/03/16 08:49:07;;;;;;;;;;;10.50;99.90;;;;;;5048669;28;19904;-73
2024/03/16 08:51:32;;;;;;;;;;;10.50;99.90;;;;;;5049892;28;20440;-74
2024/03/16 08:53:58;;;;;;;;;;;10.50;99.90;;;;;;5049647;28;20007;-75
2024/03/16 08:56:27;;;;;;;;;;;10.50;99.90;;;;;;5048335;28;20015;-74
2024/03/16 08:58:53;;;;;;;;;;;10.50;99.90;;;;;;5048491;28;19912;-73
2024/03/16 09:01:19;;;;;;;;;;;10.50;99.90;;;;;;5048518;28;19912;-73
2024/03/16 09:03:45;;;;;;;;;;;10.60;99.90;;;;;;5048423;28;19904;-75
2024/03/16 09:06:10;;;;;;;;;;;10.50;99.90;;;;;;5048239;28;19925;-74
2024/03/16 09:08:37;;;;;;;;;;;10.50;99.90;;;;;;5048049;28;19927;-74
2024/03/16 09:11:02;;;;;;;;;;;10.50;99.90;;;;;;5047741;28;19908;-73
2024/03/16 09:13:29;;;;;;;;;;;10.50;99.80;;;;;;5047357;28;19905;-74
2024/03/16 09:15:55;;;;;;;;;;;10.60;99.90;;;;;;5047552;28;20379;-74
2024/03/16 09:18:20;;;;;;;;;;;10.70;99.90;;;;;;5049313;28;20031;-74
2024/03/16 09:20:46;;;;;;;;;;;10.80;99.90;;;;;;5049608;28;19908;-74
2024/03/16 09:23:13;;;;;;;;;;;10.80;99.90;;;;;;5049492;28;20392;-74
2024/03/16 09:25:40;;;;;;;;;;;10.90;99.90;;;;;;5049465;28;19955;-75
2024/03/16 09:28:07;;;;;;;;;;;10.90;99.90;;;;;;5049460;28;19912;-73
2024/03/16 09:30:33;;;;;;;;;;;10.90;99.90;;;;;;5048562;28;20003;-73
2024/03/16 09:32:59;;;;;;;;;;;10.90;99.90;;;;;;5053252;28;20536;-73
2024/03/16 09:35:26;;;;;;;;;;;10.80;99.90;;;;;;5053143;28;19924;-74
2024/03/16 09:37:51;;;;;;;;;;;10.70;99.90;;;;;;5051961;28;19909;-74
2024/03/16 09:40:17;;;;;;;;;;;10.60;99.90;;;;;;5053226;28;20284;-74
2024/03/16 09:42:43;;;;;;;;;;;10.50;99.90;;;;;;5053109;28;19915;-74
2024/03/16 09:45:12;;;;;;;;;;;10.40;99.90;;;;;;5053193;28;19926;-74
2024/03/16 09:47:39;;;;;;;;;;;10.40;99.90;;;;;;5053063;28;20007;-74
2024/03/16 09:50:07;;;;;;;;;;;10.30;99.90;;;;;;5053124;28;19905;-73
2024/03/16 09:52:40;;;;;;;;;;;10.30;99.90;;;;;;5052994;28;19913;-73
2024/03/16 09:55:09;;;;;;;;;;;10.30;99.90;;;;;;5052971;28;19912;-73
2024/03/16 09:57:38;;;;;;;;;;;10.20;99.90;;;;;;5051443;28;19978;-74
2024/03/16 10:00:05;;;;;;;;;;;10.20;99.90;;;;;;5052656;28;20349;-73
2024/03/16 10:02:31;;;;;;;;;;;10.10;99.90;;;;;;5051793;28;19913;-73
2024/03/16 10:04:57;;;;;;;;;;;10.00;99.90;;;;;;5052692;28;19909;-73
2024/03/16 10:07:23;;;;;;;;;;;10.10;99.90;;;;;;5052736;28;20369;-74
2024/03/16 10:09:55;;;;;;;;;;;10.20;99.90;;;;;;5051305;28;19963;-74
2024/03/16 10:12:24;;;;;;;;;;;10.30;99.90;;;;;;5051267;28;19913;-73
2024/03/16 10:15:09;;;;;;;;;;;10.30;99.90;;;;;;5052300;28;20380;-74
2024/03/16 10:17:38;;;;;;;;;;;10.50;99.90;;;;;;5051262;28;19922;-73
2024/03/16 10:20:17;;;;;;;;;;;10.60;99.90;;;;;;5051014;28;20767;-75
2024/03/16 10:22:43;;;;;;;;;;;10.70;99.90;;;;;;5052411;28;19954;-73
2024/03/16 10:25:09;;;;;;;;;;;10.80;99.90;;;;;;5051122;28;19943;-74
2024/03/16 10:27:44;;;;;;;;;;;11.00;99.90;;;;;;5052050;28;19995;-74
2024/03/16 10:30:15;;;;;;;;;;;11.10;99.90;;;;;;5050994;28;19916;-75
2024/03/16 10:32:41;;;;;;;;;;;11.30;99.90;;;;;;5050879;28;19963;-74
2024/03/16 10:35:11;;;;;;;;;;;11.30;99.90;;;;;;5050785;28;19921;-74
2024/03/16 10:37:38;;;;;;;;;;;11.30;99.90;;;;;;5052231;28;19951;-74
2024/03/16 10:40:13;;;;;;;;;;;11.20;99.90;;;;;;5052162;28;19915;-74
2024/03/16 10:42:41;;;;;;;;;;;11.10;99.90;;;;;;5051227;28;19995;-74
2024/03/16 10:45:09;;;;;;;;;;;11.10;99.90;;;;;;5052082;28;19955;-74
2024/03/16 10:47:34;;;;;;;;;;;11.00;99.90;;;;;;5050585;28;20003;-74
2024/03/16 10:50:00;;;;;;;;;;;10.90;99.90;;;;;;5051652;28;19995;-75
2024/03/16 10:52:27;;;;;;;;;;;10.90;99.90;;;;;;5051993;28;19915;-74
2024/03/16 10:54:53;;;;;;;;;;;10.90;99.90;;;;;;5050120;28;19909;-73
2024/03/16 10:57:19;;;;;;;;;;;10.90;99.90;;;;;;5050217;28;19908;-74
2024/03/16 10:59:48;;;;;;;;;;;11.00;99.90;;;;;;5051768;28;19962;-74
2024/03/16 11:02:15;;;;;;;;;;;10.90;99.90;;;;;;5050321;28;20454;-75
2024/03/16 11:04:50;;;;;;;;;;;10.80;99.90;;;;;;5050346;28;19913;-75
2024/03/16 11:07:17;;;;;;;;;;;10.80;99.90;;;;;;5050249;28;19952;-73
2024/03/16 11:09:44;;;;;;;;;;;10.80;99.90;;;;;;5051428;28;19915;-74
2024/03/16 11:12:28;;;;;;;;;;;10.80;99.90;;;;;;5045933;28;19983;-73
2024/03/16 11:15:13;;;;;;;;;;;10.70;99.90;;;;;;5051192;28;20000;-74
2024/03/16 11:17:39;;;;;;;;;;;10.60;99.90;;;;;;5049862;28;20022;-73
2024/03/16 11:20:23;;;;;;;;;;;10.50;99.90;;;;;;5051207;28;20387;-73
2024/03/16 11:22:49;;;;;;;;;;;10.40;99.90;;;;;;5049995;28;19911;-72
2024/03/16 11:25:22;;;;;;;;;;;10.30;99.90;;;;;;5050915;28;20293;-74
2024/03/16 11:27:50;;;;;;;;;;;10.40;99.90;;;;;;5051338;28;19913;-74
2024/03/16 11:30:19;;;;;;;;;;;10.40;99.90;;;;;;5049313;28;20011;-74
2024/03/16 11:32:44;;;;;;;;;;;10.40;99.90;;;;;;5049388;28;19964;-74
2024/03/16 11:35:11;;;;;;;;;;;10.40;99.90;;;;;;5050861;28;19928;-74
2024/03/16 11:37:37;;;;;;;;;;;10.50;99.90;;;;;;5049435;28;19934;-73
2024/03/16 11:40:02;;;;;;;;;;;10.40;99.90;;;;;;5050790;28;19912;-76
2024/03/16 11:42:29;;;;;;;;;;;10.40;99.90;;;;;;5049437;28;19905;-75
2024/03/16 11:44:54;;;;;;;;;;;10.40;99.90;;;;;;5049359;28;19912;-72
2024/03/16 11:47:20;;;;;;;;;;;10.40;99.90;;;;;;5049663;28;20409;-72
2024/03/16 11:49:47;;;;;;;;;;;10.40;99.90;;;;;;5049400;28;19909;-73
2024/03/16 11:52:12;;;;;;;;;;;10.60;99.90;;;;;;5050665;28;19905;-71
2024/03/16 11:54:44;;;;;;;;;;;10.70;99.90;;;;;;5048510;28;20332;-72
2024/03/16 11:57:10;;;;;;;;;;;11.00;99.90;;;;;;5050092;28;19909;-73
2024/03/16 11:59:36;;;;;;;;;;;11.20;99.90;;;;;;5050239;28;19908;-74
2024/03/16 12:02:03;;;;;;;;;;;11.40;99.90;;;;;;5048981;28;20404;-74
2024/03/16 12:04:29;;;;;;;;;;;11.60;99.90;;;;;;5050222;28;19909;-74
2024/03/16 12:06:56;;;;;;;;;;;11.80;99.90;;;;;;5048945;28;19978;-74
2024/03/16 12:09:30;;;;;;;;;;;12.00;99.90;;;;;;5048991;28;19905;-73
2024/03/16 12:12:00;;;;;;;;;;;12.20;99.90;;;;;;5048956;28;19958;-74
2024/03/16 12:14:26;;;;;;;;;;;12.30;99.90;;;;;;5048696;28;19959;-74
2024/03/16 12:16:52;;;;;;;;;;;12.50;99.90;;;;;;5048662;28;19951;-74
2024/03/16 12:19:19;;;;;;;;;;;12.80;99.90;;;;;;5048694;28;19950;-73
2024/03/16 12:21:44;;;;;;;;;;;12.90;99.90;;;;;;5049156;28;19908;-73
2024/03/16 12:24:17;;;;;;;;;;;12.90;99.90;;;;;;5050090;28;19912;-72
2024/03/16 12:26:43;;;;;;;;;;;13.10;99.90;;;;;;5048716;28;19917;-73
2024/03/16 12:29:09;;;;;;;;;;;13.20;99.90;;;;;;5049962;28;20076;-74
2024/03/16 12:31:39;;;;;;;;;;;13.40;99.90;;;;;;5049126;28;19951;-72
2024/03/16 12:34:04;;;;;;;;;;;13.50;99.90;;;;;;5048501;28;20011;-73
2024/03/16 12:36:30;;;;;;;;;;;13.60;99.90;;;;;;5048823;28;20440;-73
2024/03/16 12:38:55;;;;;;;;;;;13.80;99.90;;;;;;5048731;28;19904;-74
2024/03/16 12:41:21;;;;;;;;;;;13.90;99.90;;;;;;5048645;28;19978;-74
2024/03/16 12:43:46;;;;;;;;;;;14.00;99.90;;;;;;5048522;28;19909;-74
2024/03/16 12:46:12;;;;;;;;;;;14.10;99.90;;;;;;5048283;28;19917;-73
2024/03/16 12:48:39;;;;;;;;;;;14.20;99.90;;;;;;5049848;28;19919;-74
2024/03/16 12:51:04;;;;;;;;;;;14.30;99.90;;;;;;5049869;28;19905;-73
2024/03/16 12:53:30;;;;;;;;;;;14.20;99.90;;;;;;5049827;28;19911;-73
2024/03/16 12:55:55;;;;;;;;;;;14.30;99.90;;;;;;5048342;28;19905;-75
2024/03/16 12:58:21;;;;;;;;;;;14.10;99.90;;;;;;5049636;28;20369;-74
2024/03/16 13:00:47;;;;;;;;;;;14.00;99.90;;;;;;5048637;28;20014;-74
2024/03/16 13:03:14;;;;;;;;;;;14.00;99.90;;;;;;5048223;28;20285;-73
2024/03/16 13:05:39;;;;;;;;;;;14.00;99.90;;;;;;5050084;28;19924;-74
2024/03/16 13:08:05;;;;;;;;;;;13.90;99.90;;;;;;5053804;28;19924;-74
2024/03/16 13:10:31;;;;;;;;;;;13.80;99.90;;;;;;5052738;28;19913;-73
2024/03/16 13:12:57;;;;;;;;;;;13.80;99.90;;;;;;5052267;28;20441;-72
2024/03/16 13:15:22;;;;;;;;;;;13.70;99.90;;;;;;5052444;28;19911;-73
2024/03/16 13:17:49;;;;;;;;;;;13.70;99.90;;;;;;5053547;28;19909;-74
2024/03/16 13:20:17;;;;;;;;;;;13.90;99.90;;;;;;5053563;28;19912;-73
2024/03/16 13:22:43;;;;;;;;;;;14.00;99.90;;;;;;5053339;28;19905;-74
2024/03/16 13:25:08;;;;;;;;;;;14.00;99.90;;;;;;5053183;28;20335;-73
2024/03/16 13:27:34;;;;;;;;;;;14.00;99.90;;;;;;5053559;28;19943;-73
2024/03/16 13:29:59;;;;;;;;;;;14.10;99.90;;;;;;5051937;28;19905;-74
2024/03/16 13:32:25;;;;;;;;;;;14.30;99.90;;;;;;5053155;28;19952;-70
2024/03/16 13:34:50;;;;;;;;;;;14.30;99.90;;;;;;5053049;28;19924;-71
2024/03/16 13:37:16;;;;;;;;;;;14.30;99.90;;;;;;5051874;28;19909;-72
2024/03/16 13:39:41;;;;;;;;;;;14.20;99.90;;;;;;5053120;28;20436;-71
2024/03/16 13:42:08;;;;;;;;;;;14.20;99.90;;;;;;5051843;28;20416;-72
2024/03/16 13:44:34;;;;;;;;;;;14.10;99.90;;;;;;5051721;28;19905;-72
2024/03/16 13:47:00;;;;;;;;;;;14.00;99.90;;;;;;5051671;28;20369;-71
2024/03/16 13:49:26;;;;;;;;;;;14.00;99.90;;;;;;5047561;28;20337;-71
2024/03/16 13:51:52;;;;;;;;;;;14.00;99.90;;;;;;5051671;28;19996;-71
2024/03/16 13:54:18;;;;;;;;;;;14.00;99.90;;;;;;5052789;28;19936;-71
2024/03/16 13:56:43;;;;;;;;;;;14.00;99.90;;;;;;5051647;28;19940;-70
2024/03/16 13:59:10;;;;;;;;;;;14.00;99.90;;;;;;5052893;28;19992;-71
2024/03/16 14:01:37;;;;;;;;;;;13.90;99.90;;;;;;5051391;28;19909;-74
2024/03/16 14:04:04;;;;;;;;;;;13.80;99.90;;;;;;5052498;28;19944;-73
2024/03/16 14:06:30;;;;;;;;;;;13.80;99.90;;;;;;5051238;28;19912;-71
2024/03/16 14:08:56;;;;;;;;;;;13.80;99.90;;;;;;5051620;28;20398;-71
2024/03/16 14:11:22;;;;;;;;;;;13.80;99.90;;;;;;5052604;28;20007;-71
2024/03/16 14:13:47;;;;;;;;;;;13.80;99.90;;;;;;5052830;28;20284;-75
2024/03/16 14:16:14;;;;;;;;;;;13.80;99.90;;;;;;5051233;28;20391;-72
2024/03/16 14:18:39;;;;;;;;;;;13.70;99.90;;;;;;5051005;28;19966;-74